| Date | Time | Temp. (oF) | Dew Point (oF) | Rel. Hum. (%) | Press. (in.) | Wind Dir. | Wind Speed (mph) | Hourly Rainfall (in.) |
|
|---|---|---|---|---|---|---|---|---|---|
| 1 | 10/04 | 00:00 | 53 | 51 | 93 | 30.53 | SSE | 0 | 0.00 |
| 2 | 10/03 | 23:00 | 55 | 51 | 88 | 30.53 | SSE | 2 | 0.00 |
| 3 | 10/03 | 22:00 | 56 | 51 | 85 | 30.53 | S | 3 | 0.00 |
| 4 | 10/03 | 21:00 | 57 | 50 | 80 | 30.52 | S | 0 | 0.00 |
| 5 | 10/03 | 20:00 | 60 | 50 | 72 | 30.51 | S | 1 | 0.00 |
| 6 | 10/03 | 19:00 | 65 | 50 | 59 | 30.50 | SSE | 2 | 0.00 |
| 7 | 10/03 | 18:00 | 69 | 50 | 52 | 30.49 | SSE | 7 | 0.00 |
| 8 | 10/03 | 17:00 | 71 | 51 | 51 | 30.48 | SSW | 3 | 0.00 |
| 9 | 10/03 | 16:00 | 73 | 50 | 45 | 30.49 | S | 8 | 0.00 |
| 10 | 10/03 | 15:00 | 72 | 50 | 47 | 30.51 | ESE | 4 | 0.00 |
| 11 | 10/03 | 14:00 | 72 | 50 | 47 | 30.55 | ESE | 7 | 0.00 |
| 12 | 10/03 | 13:00 | 71 | 48 | 45 | 30.57 | S | 4 | 0.00 |
| 13 | 10/03 | 12:00 | 69 | 48 | 49 | 30.59 | SE | 2 | 0.00 |
| 14 | 10/03 | 11:00 | 66 | 50 | 58 | 30.60 | E | 3 | 0.00 |
| 15 | 10/03 | 10:00 | 59 | 53 | 81 | 30.59 | NE | 5 | 0.00 |
| 16 | 10/03 | 09:00 | 50 | 50 | 100 | 30.58 | ENE | 2 | 0.00 |
| 17 | 10/03 | 08:00 | 43 | 42 | 100 | 30.56 | W | 1 | 0.00 |
| 18 | 10/03 | 07:00 | 43 | 42 | 100 | 30.54 | W | 0 | 0.00 |
| 19 | 10/03 | 06:00 | 43 | 42 | 100 | 30.51 | W | 0 | 0.00 |
| 20 | 10/03 | 05:00 | 43 | 42 | 100 | 30.49 | W | 0 | 0.00 |
| 21 | 10/03 | 04:00 | 45 | 45 | 100 | 30.48 | W | 1 | 0.00 |
| 22 | 10/03 | 03:00 | 45 | 44 | 99 | 30.49 | ENE | 1 | 0.00 |
| 23 | 10/03 | 02:00 | 46 | 45 | 97 | 30.48 | ENE | 1 | 0.00 |
| 24 | 10/03 | 01:00 | 47 | 45 | 96 | 30.47 | ENE | 1 | 0.00 |